createdAt,value
2022-07-29T00:00:58.647Z,101322.34
2022-07-29T00:03:25.216Z,101308.34
2022-07-29T00:05:53.940Z,101308.47
2022-07-29T00:08:20.921Z,101300.88
2022-07-29T00:10:47.572Z,101301.00
2022-07-29T00:13:14.179Z,101301.94
2022-07-29T00:15:40.723Z,101293.84
2022-07-29T00:18:07.266Z,101292.47
2022-07-29T00:20:33.783Z,101296.50
2022-07-29T00:23:00.326Z,101293.88
2022-07-29T00:25:27.008Z,101293.75
2022-07-29T00:27:53.492Z,101284.28
2022-07-29T00:30:20.514Z,101283.41
2022-07-29T00:32:47.048Z,101280.06
2022-07-29T00:35:32.530Z,101281.13
2022-07-29T00:38:00.117Z,101269.09
2022-07-29T00:40:28.610Z,101267.22
2022-07-29T00:42:55.516Z,101264.81
2022-07-29T00:45:23.105Z,101255.94
2022-07-29T00:47:49.866Z,101251.63
2022-07-29T00:50:16.562Z,101251.34
2022-07-29T00:52:43.363Z,101238.16
2022-07-29T00:55:15.580Z,101236.69
2022-07-29T00:57:43.539Z,101228.91
2022-07-29T01:00:13.912Z,101227.22
2022-07-29T01:02:40.452Z,101226.63
2022-07-29T01:05:07.436Z,101222.19
2022-07-29T01:07:37.784Z,101229.97
2022-07-29T01:10:07.255Z,101229.25
2022-07-29T01:12:35.454Z,101229.25
2022-07-29T01:15:05.197Z,101226.09
2022-07-29T01:17:53.236Z,101231.56
2022-07-29T01:20:31.937Z,101228.91
2022-07-29T01:23:08.028Z,101225.53
2022-07-29T01:25:59.250Z,101220.38
2022-07-29T01:29:13.635Z,101218.59
2022-07-29T01:31:59.026Z,101214.41
2022-07-29T01:34:32.410Z,101213.53
2022-07-29T01:37:07.743Z,101218.19
2022-07-29T01:39:37.617Z,101213.03
2022-07-29T01:42:11.070Z,101218.41
2022-07-29T01:45:10.580Z,101215.97
2022-07-29T01:47:57.384Z,101226.31
2022-07-29T01:50:32.579Z,101216.69
2022-07-29T01:53:05.538Z,101215.13
2022-07-29T01:55:39.617Z,101213.97
2022-07-29T01:58:07.944Z,101211.13
2022-07-29T02:00:35.612Z,101199.88
2022-07-29T02:03:07.269Z,101200.06
2022-07-29T02:05:36.348Z,101196.47
2022-07-29T02:08:05.237Z,101206.28
2022-07-29T02:10:34.541Z,101210.41
2022-07-29T02:13:03.214Z,101208.91
2022-07-29T02:15:32.918Z,101204.91
2022-07-29T02:18:06.182Z,101205.44
2022-07-29T02:20:33.761Z,101202.09
2022-07-29T02:23:01.831Z,101200.94
2022-07-29T02:25:37.669Z,101211.88
2022-07-29T02:28:07.124Z,101224.28
2022-07-29T02:30:34.845Z,101243.66
2022-07-29T02:33:02.787Z,101258.41
2022-07-29T02:35:34.897Z,101270.72
2022-07-29T02:38:22.806Z,101266.19
2022-07-29T02:40:52.038Z,101255.25
2022-07-29T02:43:20.130Z,101236.06
2022-07-29T02:45:51.992Z,101240.84
2022-07-29T02:48:21.167Z,101262.19
2022-07-29T02:50:55.659Z,101270.19
2022-07-29T02:53:26.044Z,101262.38
2022-07-29T02:56:00.193Z,101251.25
2022-07-29T02:58:38.975Z,101257.75
2022-07-29T03:01:21.675Z,101270.28
2022-07-29T03:03:50.407Z,101264.91
2022-07-29T03:06:30.911Z,101272.56
2022-07-29T03:09:10.444Z,101257.06
2022-07-29T03:11:46.120Z,101253.38
2022-07-29T03:14:18.698Z,101262.50
2022-07-29T03:16:46.424Z,101263.69
2022-07-29T03:19:13.323Z,101262.22
2022-07-29T03:21:40.086Z,101263.38
2022-07-29T03:24:10.550Z,101266.28
2022-07-29T03:26:37.875Z,101267.44
2022-07-29T03:29:05.134Z,101268.03
2022-07-29T03:31:32.342Z,101270.94
2022-07-29T03:34:00.234Z,101278.72
2022-07-29T03:36:27.064Z,101295.44
2022-07-29T03:38:54.552Z,101294.69
2022-07-29T03:41:23.744Z,101285.03
2022-07-29T03:43:52.752Z,101295.25
2022-07-29T03:46:23.579Z,101314.78
2022-07-29T03:48:54.114Z,101335.59
2022-07-29T03:51:33.336Z,101348.34
2022-07-29T03:54:07.675Z,101354.06
2022-07-29T03:56:39.686Z,101342.63
2022-07-29T03:59:07.711Z,101341.31
2022-07-29T04:01:35.439Z,101336.25
2022-07-29T04:04:04.166Z,101342.06
2022-07-29T04:06:38.666Z,101337.22
2022-07-29T04:09:05.151Z,101336.81
2022-07-29T04:11:56.974Z,101325.22
2022-07-29T04:14:25.122Z,101305.81
2022-07-29T04:16:51.613Z,101303.00
2022-07-29T04:19:18.422Z,101301.72
2022-07-29T04:21:46.097Z,101297.72
2022-07-29T04:24:12.899Z,101295.94
2022-07-29T04:26:39.756Z,101293.19
2022-07-29T04:29:06.196Z,101292.44
2022-07-29T04:31:32.852Z,101279.47
2022-07-29T04:33:59.388Z,101283.03
2022-07-29T04:36:29.092Z,101271.13
2022-07-29T04:38:56.515Z,101264.56
2022-07-29T04:41:23.492Z,101255.47
2022-07-29T04:44:01.769Z,101241.38
2022-07-29T04:46:28.867Z,101251.38
2022-07-29T04:48:55.507Z,101257.91
2022-07-29T04:51:22.070Z,101251.72
2022-07-29T04:53:48.809Z,101257.81
2022-07-29T04:56:15.338Z,101269.91
2022-07-29T04:58:41.963Z,101273.09
2022-07-29T05:01:08.457Z,101280.78
2022-07-29T05:03:34.931Z,101283.41
2022-07-29T05:06:01.357Z,101286.97
2022-07-29T05:08:27.812Z,101285.19
2022-07-29T05:10:54.464Z,101288.06
2022-07-29T05:13:20.993Z,101287.22
2022-07-29T05:15:47.478Z,101287.66
2022-07-29T05:18:14.360Z,101293.25
2022-07-29T05:20:40.988Z,101299.31
2022-07-29T05:23:07.677Z,101299.81
2022-07-29T05:25:44.436Z,101301.50
2022-07-29T05:28:12.363Z,101300.41
2022-07-29T05:30:39.089Z,101292.38
2022-07-29T05:33:05.869Z,101285.84
2022-07-29T05:35:32.363Z,101270.47
2022-07-29T05:37:58.835Z,101265.00
2022-07-29T05:40:25.254Z,101267.22
2022-07-29T05:42:51.718Z,101281.06
2022-07-29T05:45:18.230Z,101287.84
2022-07-29T05:47:44.729Z,101295.19
2022-07-29T05:50:11.481Z,101294.00
2022-07-29T05:52:38.027Z,101272.00
2022-07-29T05:55:06.444Z,101264.66
2022-07-29T05:57:33.201Z,101253.50
2022-07-29T06:00:00.296Z,101246.47
2022-07-29T06:02:26.857Z,101248.94
2022-07-29T06:04:53.536Z,101255.69
2022-07-29T06:07:20.338Z,101258.97
2022-07-29T06:09:46.783Z,101256.66
2022-07-29T06:12:13.494Z,101257.16
2022-07-29T06:14:39.977Z,101260.44
2022-07-29T06:17:06.799Z,101258.31
2022-07-29T06:19:35.832Z,101244.44
2022-07-29T06:22:02.414Z,101248.56
2022-07-29T06:24:29.112Z,101248.31
2022-07-29T06:26:55.903Z,101255.28
2022-07-29T06:29:22.488Z,101248.09
2022-07-29T06:31:48.988Z,101254.78
2022-07-29T06:34:16.932Z,101267.31
2022-07-29T06:36:44.366Z,101267.59
2022-07-29T06:39:12.524Z,101269.78
2022-07-29T06:41:38.987Z,101277.38
2022-07-29T06:44:05.891Z,101280.28
2022-07-29T06:46:33.143Z,101289.91
2022-07-29T06:49:02.103Z,101298.47
2022-07-29T06:51:28.626Z,101301.34
2022-07-29T06:54:00.422Z,101319.97
2022-07-29T06:56:38.182Z,101328.31
2022-07-29T06:59:07.707Z,101342.66
2022-07-29T07:01:34.237Z,101354.47
2022-07-29T07:04:00.813Z,101352.41
2022-07-29T07:06:27.572Z,101363.56
2022-07-29T07:08:54.040Z,101364.31
2022-07-29T07:11:20.574Z,101369.47
2022-07-29T07:13:47.064Z,101364.59
2022-07-29T07:16:13.670Z,101367.41
2022-07-29T07:18:40.149Z,101366.38
2022-07-29T07:21:06.719Z,101371.44
2022-07-29T07:23:33.264Z,101375.56
2022-07-29T07:25:59.738Z,101383.34
2022-07-29T07:28:26.161Z,101371.72
2022-07-29T07:30:53.109Z,101378.28
2022-07-29T07:33:20.235Z,101377.53
2022-07-29T07:35:47.105Z,101373.41
2022-07-29T07:38:13.641Z,101377.16
2022-07-29T07:40:40.779Z,101361.41
2022-07-29T07:43:07.246Z,101364.69
2022-07-29T07:45:34.129Z,101360.28
2022-07-29T07:48:00.947Z,101365.91
2022-07-29T07:50:27.571Z,101362.16
2022-07-29T07:52:59.082Z,101360.19
2022-07-29T07:55:27.082Z,101361.59
2022-07-29T07:57:54.817Z,101354.09
2022-07-29T08:00:23.710Z,101343.78
2022-07-29T08:02:51.426Z,101347.53
2022-07-29T08:05:18.898Z,101357.28
2022-07-29T08:07:47.290Z,101357.47
2022-07-29T08:10:15.403Z,101369.09
2022-07-29T08:12:42.935Z,101356.91
2022-07-29T08:15:09.984Z,101361.22
2022-07-29T08:17:36.623Z,101364.59
2022-07-29T08:20:03.983Z,101356.88
2022-07-29T08:22:30.897Z,101356.81
2022-07-29T08:24:57.410Z,101356.88
2022-07-29T08:27:42.883Z,101356.44
2022-07-29T08:30:11.429Z,101355.63
2022-07-29T08:32:53.230Z,101349.63
2022-07-29T08:35:21.695Z,101357.59
2022-07-29T08:37:48.361Z,101359.91
2022-07-29T08:40:15.357Z,101361.38
2022-07-29T08:42:41.804Z,101359.91
2022-07-29T08:45:09.015Z,101367.50
2022-07-29T08:47:40.330Z,101358.88
2022-07-29T08:50:08.498Z,101364.94
2022-07-29T08:52:38.232Z,101368.31
2022-07-29T08:55:07.407Z,101366.06
2022-07-29T08:57:35.089Z,101363.97
2022-07-29T09:00:11.383Z,101363.69
2022-07-29T09:02:42.629Z,101371.78
2022-07-29T09:05:09.515Z,101370.50
2022-07-29T09:07:36.515Z,101367.34
2022-07-29T09:10:05.636Z,101357.75
2022-07-29T09:12:37.557Z,101359.66
2022-07-29T09:15:04.579Z,101364.91
2022-07-29T09:17:44.583Z,101363.47
2022-07-29T09:20:20.609Z,101361.72
2022-07-29T09:22:50.513Z,101364.94
2022-07-29T09:25:34.506Z,101357.06
2022-07-29T09:28:12.661Z,101351.91
2022-07-29T09:30:53.480Z,101349.16
2022-07-29T09:33:20.523Z,101350.78
2022-07-29T09:35:56.397Z,101350.22
2022-07-29T09:38:23.635Z,101343.34
2022-07-29T09:41:05.453Z,101332.69
2022-07-29T09:43:32.899Z,101339.53
2022-07-29T09:46:12.583Z,101330.44
2022-07-29T09:48:39.212Z,101331.94
2022-07-29T09:51:06.816Z,101343.34
2022-07-29T09:53:38.764Z,101343.19
2022-07-29T09:56:06.027Z,101344.13
2022-07-29T09:58:35.842Z,101342.03
2022-07-29T10:01:02.648Z,101335.66
2022-07-29T10:03:29.210Z,101342.19
2022-07-29T10:06:14.467Z,101339.97
2022-07-29T10:08:42.647Z,101339.47
2022-07-29T10:11:12.134Z,101336.84
2022-07-29T10:13:39.504Z,101341.06
2022-07-29T10:16:07.234Z,101341.47
2022-07-29T10:18:34.669Z,101340.41
2022-07-29T10:21:02.087Z,101342.03
2022-07-29T10:23:30.252Z,101346.91
2022-07-29T10:26:13.964Z,101345.59
2022-07-29T10:28:40.455Z,101346.66
2022-07-29T10:31:14.660Z,101342.41
2022-07-29T10:33:47.583Z,101341.16
2022-07-29T10:36:35.532Z,101346.75
2022-07-29T10:39:41.916Z,101341.75
2022-07-29T10:42:20.350Z,101346.78
2022-07-29T10:44:57.146Z,101349.94
2022-07-29T10:47:28.197Z,101346.75
2022-07-29T10:50:05.458Z,101340.78
2022-07-29T10:52:50.169Z,101343.72
2022-07-29T10:58:26.667Z,101342.53
2022-07-29T11:00:55.135Z,101351.78
2022-07-29T11:03:52.437Z,101347.56
2022-07-29T11:06:26.364Z,101351.44
2022-07-29T11:09:20.485Z,101353.69
2022-07-29T11:12:02.076Z,101347.72
2022-07-29T11:15:02.387Z,101351.38
2022-07-29T11:17:37.634Z,101354.69
2022-07-29T11:20:36.534Z,101351.44
2022-07-29T11:23:34.050Z,101357.31
2022-07-29T11:26:23.007Z,101353.38
2022-07-29T11:29:18.997Z,101356.41
2022-07-29T11:31:55.319Z,101351.03
2022-07-29T11:34:28.006Z,101351.63
2022-07-29T11:37:08.345Z,101349.09
2022-07-29T11:39:37.734Z,101351.63
2022-07-29T11:42:32.606Z,101349.81
2022-07-29T11:45:06.639Z,101355.94
2022-07-29T11:47:48.551Z,101350.06
2022-07-29T11:50:28.939Z,101351.53
2022-07-29T11:52:55.996Z,101359.44
2022-07-29T11:55:25.176Z,101368.78
2022-07-29T11:58:04.050Z,101359.66
2022-07-29T12:00:36.635Z,101355.34
2022-07-29T12:03:05.738Z,101363.16
2022-07-29T12:05:36.455Z,101360.38
2022-07-29T12:08:20.506Z,101350.69
2022-07-29T12:10:49.358Z,101353.69
2022-07-29T12:13:18.242Z,101351.13
2022-07-29T12:15:59.707Z,101348.16
2022-07-29T12:18:27.733Z,101355.34
2022-07-29T12:21:04.908Z,101342.13
2022-07-29T12:23:35.558Z,101360.16
2022-07-29T12:26:07.423Z,101350.69
2022-07-29T12:28:40.503Z,101363.28
2022-07-29T12:31:15.084Z,101358.47
2022-07-29T12:34:02.457Z,101360.16
2022-07-29T12:36:28.988Z,101355.97
2022-07-29T12:38:55.507Z,101357.63
2022-07-29T12:41:22.787Z,101360.78
2022-07-29T12:43:55.530Z,101362.69
2022-07-29T12:46:22.333Z,101364.25
2022-07-29T12:48:55.596Z,101364.94
2022-07-29T12:51:34.946Z,101358.47
2022-07-29T12:54:16.211Z,101364.00
2022-07-29T12:56:45.650Z,101357.25
2022-07-29T12:59:17.537Z,101357.50
2022-07-29T13:01:44.867Z,101357.72
2022-07-29T13:04:12.059Z,101361.91
2022-07-29T13:06:39.241Z,101362.03
2022-07-29T13:09:23.745Z,101367.31
2022-07-29T13:11:54.275Z,101360.72
2022-07-29T13:14:38.304Z,101358.34
2022-07-29T13:17:04.962Z,101360.28
2022-07-29T13:19:41.456Z,101363.91
2022-07-29T13:22:12.529Z,101364.13
2022-07-29T13:25:04.615Z,101368.31
2022-07-29T13:27:34.017Z,101365.59
2022-07-29T13:30:02.307Z,101362.09
2022-07-29T13:32:30.875Z,101365.00
2022-07-29T13:34:58.709Z,101361.56
2022-07-29T13:37:26.803Z,101361.25
2022-07-29T13:39:54.596Z,101360.81
2022-07-29T13:42:21.720Z,101355.16
2022-07-29T13:44:49.558Z,101361.09
2022-07-29T13:47:17.178Z,101355.50
2022-07-29T13:49:43.662Z,101351.25
2022-07-29T13:52:10.109Z,101355.81
2022-07-29T13:54:42.299Z,101351.88
2022-07-29T13:57:09.623Z,101353.69
2022-07-29T13:59:36.111Z,101347.84
2022-07-29T14:02:03.184Z,101344.47
2022-07-29T14:04:29.732Z,101342.53
2022-07-29T14:06:56.269Z,101344.88
2022-07-29T14:09:22.783Z,101339.91
2022-07-29T14:11:51.111Z,101344.69
2022-07-29T14:14:18.217Z,101339.72
2022-07-29T14:16:47.761Z,101341.69
2022-07-29T14:19:18.406Z,101338.16
2022-07-29T14:21:45.680Z,101343.91
2022-07-29T14:24:18.028Z,101341.09
2022-07-29T14:26:48.516Z,101343.06
2022-07-29T14:29:15.108Z,101337.06
2022-07-29T14:31:41.630Z,101334.94
2022-07-29T14:34:08.075Z,101330.91
2022-07-29T14:36:34.536Z,101330.47
2022-07-29T14:39:00.974Z,101324.63
2022-07-29T14:41:29.447Z,101334.25
2022-07-29T14:43:56.081Z,101335.25
2022-07-29T14:46:22.945Z,101335.81
2022-07-29T14:48:49.635Z,101338.59
2022-07-29T14:51:16.133Z,101332.16
2022-07-29T14:53:42.555Z,101335.94
2022-07-29T14:56:34.314Z,101337.75
2022-07-29T14:58:58.198Z,101336.91
2022-07-29T15:01:25.650Z,101339.44
2022-07-29T15:03:56.853Z,101335.81
2022-07-29T15:06:26.702Z,101341.69
2022-07-29T15:08:53.253Z,101335.94
2022-07-29T15:11:19.796Z,101322.31
2022-07-29T15:13:46.466Z,101327.00
2022-07-29T15:16:12.982Z,101325.59
2022-07-29T15:18:39.803Z,101336.81
2022-07-29T15:21:07.885Z,101330.16
2022-07-29T15:23:37.149Z,101333.66
2022-07-29T15:26:04.626Z,101326.53
2022-07-29T15:28:31.138Z,101329.94
2022-07-29T15:30:57.569Z,101326.72
2022-07-29T15:33:24.498Z,101331.63
2022-07-29T15:35:50.932Z,101338.88
2022-07-29T15:38:18.150Z,101334.69
2022-07-29T15:40:45.342Z,101338.25
2022-07-29T15:43:12.505Z,101339.59
2022-07-29T15:46:03.656Z,101328.41
2022-07-29T15:48:30.382Z,101335.94
2022-07-29T15:50:56.907Z,101327.09
2022-07-29T15:53:23.422Z,101328.91
2022-07-29T15:55:50.065Z,101325.28
2022-07-29T15:58:16.741Z,101330.72
2022-07-29T16:00:43.247Z,101336.31
2022-07-29T16:03:09.813Z,101325.28
2022-07-29T16:05:36.390Z,101330.28
2022-07-29T16:08:04.505Z,101328.38
2022-07-29T16:10:30.988Z,101327.38
2022-07-29T16:12:57.418Z,101316.78
2022-07-29T16:15:24.209Z,101322.91
2022-07-29T16:17:50.669Z,101318.91
2022-07-29T16:20:17.633Z,101312.34
2022-07-29T16:22:44.155Z,101314.28
2022-07-29T16:25:10.628Z,101319.16
2022-07-29T16:27:37.857Z,101314.44
2022-07-29T16:30:06.287Z,101318.09
2022-07-29T16:32:32.812Z,101312.66
2022-07-29T16:35:01.984Z,101311.97
2022-07-29T16:37:33.492Z,101307.78
2022-07-29T16:40:00.025Z,101317.25
2022-07-29T16:42:45.482Z,101309.31
2022-07-29T16:45:13.516Z,101313.34
2022-07-29T16:47:40.614Z,101310.00
2022-07-29T16:50:07.798Z,101307.19
2022-07-29T16:52:34.281Z,101304.53
2022-07-29T16:55:00.775Z,101307.47
2022-07-29T16:57:27.305Z,101307.06
2022-07-29T16:59:53.844Z,101308.63
2022-07-29T17:02:20.399Z,101314.06
2022-07-29T17:04:47.000Z,101308.06
2022-07-29T17:07:14.106Z,101312.09
2022-07-29T17:09:40.660Z,101315.59
2022-07-29T17:12:07.356Z,101312.78
2022-07-29T17:14:33.895Z,101308.47
2022-07-29T17:17:02.582Z,101314.31
2022-07-29T17:19:31.959Z,101318.53
2022-07-29T17:22:06.366Z,101319.31
2022-07-29T17:24:36.042Z,101323.06
2022-07-29T17:27:02.587Z,101317.19
2022-07-29T17:29:29.015Z,101326.63
2022-07-29T17:31:55.482Z,101326.31
2022-07-29T17:34:21.932Z,101326.03
2022-07-29T17:36:48.446Z,101324.81
2022-07-29T17:39:15.019Z,101328.16
2022-07-29T17:41:42.072Z,101333.75
2022-07-29T17:44:09.389Z,101334.59
2022-07-29T17:46:36.641Z,101331.09
2022-07-29T17:49:04.446Z,101331.34
2022-07-29T17:51:30.926Z,101341.00
2022-07-29T17:53:58.631Z,101339.28
2022-07-29T17:56:25.750Z,101343.66
2022-07-29T17:58:52.985Z,101337.06
2022-07-29T18:01:19.641Z,101336.94
2022-07-29T18:03:46.921Z,101338.25
2022-07-29T18:06:13.442Z,101339.63
2022-07-29T18:08:40.615Z,101338.59
2022-07-29T18:11:07.118Z,101344.63
2022-07-29T18:13:33.643Z,101338.22
2022-07-29T18:16:00.887Z,101354.13
2022-07-29T18:18:28.074Z,101348.81
2022-07-29T18:20:54.715Z,101347.84
2022-07-29T18:23:21.255Z,101354.34
2022-07-29T18:25:48.172Z,101362.59
2022-07-29T18:28:15.013Z,101360.31
2022-07-29T18:30:41.681Z,101364.34
2022-07-29T18:33:22.887Z,101368.41
2022-07-29T18:35:51.542Z,101368.25
2022-07-29T18:38:18.689Z,101367.41
2022-07-29T18:40:46.170Z,101369.75
2022-07-29T18:43:13.705Z,101364.66
2022-07-29T18:45:40.507Z,101367.88
2022-07-29T18:48:12.709Z,101365.09
2022-07-29T18:50:40.690Z,101365.09
2022-07-29T18:53:07.250Z,101371.38
2022-07-29T18:55:34.166Z,101369.09
2022-07-29T18:58:00.573Z,101365.03
2022-07-29T19:00:27.636Z,101372.66
2022-07-29T19:02:54.305Z,101373.53
2022-07-29T19:05:21.218Z,101363.47
2022-07-29T19:07:47.668Z,101362.50
2022-07-29T19:10:14.365Z,101365.75
2022-07-29T19:12:41.206Z,101362.16
2022-07-29T19:15:08.440Z,101364.59
2022-07-29T19:17:34.911Z,101365.53
2022-07-29T19:20:01.867Z,101367.25
2022-07-29T19:22:28.603Z,101365.09
2022-07-29T19:24:55.086Z,101370.41
2022-07-29T19:27:21.655Z,101369.94
2022-07-29T19:29:48.184Z,101375.00
2022-07-29T19:32:24.810Z,101377.31
2022-07-29T19:35:11.328Z,101376.25
2022-07-29T19:37:37.770Z,101377.56
2022-07-29T19:40:05.938Z,101376.16
2022-07-29T19:42:32.430Z,101382.50
2022-07-29T19:44:58.932Z,101393.81
2022-07-29T19:47:25.630Z,101386.59
2022-07-29T19:49:52.142Z,101394.16
2022-07-29T19:52:18.589Z,101396.56
2022-07-29T19:54:45.161Z,101398.00
2022-07-29T19:57:11.593Z,101407.09
2022-07-29T19:59:38.633Z,101410.84
2022-07-29T20:02:05.452Z,101420.78
2022-07-29T20:04:32.348Z,101425.47
2022-07-29T20:07:01.701Z,101425.09
2022-07-29T20:09:28.971Z,101417.38
2022-07-29T20:11:55.534Z,101419.56
2022-07-29T20:14:22.812Z,101419.66
2022-07-29T20:16:50.593Z,101420.16
2022-07-29T20:19:17.423Z,101410.25
2022-07-29T20:21:43.965Z,101416.00
2022-07-29T20:24:10.639Z,101414.56
2022-07-29T20:26:37.639Z,101420.13
2022-07-29T20:29:05.262Z,101424.91
2022-07-29T20:31:32.410Z,101420.19
2022-07-29T20:33:59.228Z,101432.69
2022-07-29T20:36:25.869Z,101431.84
2022-07-29T20:38:52.348Z,101439.88
2022-07-29T20:41:18.825Z,101443.69
2022-07-29T20:43:45.536Z,101442.44
2022-07-29T20:46:12.456Z,101440.88
2022-07-29T20:48:40.410Z,101440.03
2022-07-29T20:51:07.360Z,101430.88
2022-07-29T20:53:34.040Z,101436.59
2022-07-29T20:56:00.532Z,101435.00
2022-07-29T20:58:26.972Z,101436.09
2022-07-29T21:00:53.532Z,101434.41
2022-07-29T21:03:20.224Z,101440.84
2022-07-29T21:05:46.710Z,101445.41
2022-07-29T21:08:13.524Z,101449.22
2022-07-29T21:10:40.010Z,101451.78
2022-07-29T21:13:06.473Z,101448.50
2022-07-29T21:15:33.280Z,101451.34
2022-07-29T21:18:02.250Z,101449.69
2022-07-29T21:20:29.753Z,101453.66
2022-07-29T21:22:56.360Z,101458.00
2022-07-29T21:25:23.539Z,101462.72
2022-07-29T21:28:09.396Z,101460.00
2022-07-29T21:30:36.600Z,101460.75
2022-07-29T21:33:03.834Z,101465.28
2022-07-29T21:36:01.541Z,101473.06
2022-07-29T21:38:18.381Z,101464.88
2022-07-29T21:40:50.114Z,101469.19
2022-07-29T21:43:17.827Z,101465.47
2022-07-29T21:45:47.645Z,101470.03
2022-07-29T21:48:14.229Z,101477.28
2022-07-29T21:50:41.046Z,101468.53
2022-07-29T21:53:07.802Z,101479.00
2022-07-29T21:55:37.912Z,101479.00
2022-07-29T21:58:04.447Z,101476.97
2022-07-29T22:00:33.762Z,101478.53
2022-07-29T22:03:04.641Z,101474.09
2022-07-29T22:05:31.985Z,101474.88
2022-07-29T22:07:58.813Z,101474.63
2022-07-29T22:10:26.761Z,101476.16
2022-07-29T22:12:54.798Z,101478.84
2022-07-29T22:15:21.837Z,101477.81
2022-07-29T22:17:48.449Z,101482.34
2022-07-29T22:20:14.916Z,101482.88
2022-07-29T22:22:42.207Z,101473.88
2022-07-29T22:25:10.575Z,101474.72
2022-07-29T22:27:37.299Z,101474.84
2022-07-29T22:30:07.185Z,101475.69
2022-07-29T22:32:34.268Z,101476.75
2022-07-29T22:35:00.953Z,101467.34
2022-07-29T22:37:27.434Z,101476.44
2022-07-29T22:39:54.003Z,101473.09
2022-07-29T22:42:21.018Z,101468.66
2022-07-29T22:44:47.480Z,101475.72
2022-07-29T22:47:14.167Z,101471.38
2022-07-29T22:49:40.659Z,101470.66
2022-07-29T22:52:09.060Z,101471.59
2022-07-29T22:54:35.525Z,101473.72
2022-07-29T22:57:02.973Z,101461.69
2022-07-29T22:59:29.560Z,101461.47
2022-07-29T23:01:56.167Z,101461.38
2022-07-29T23:04:23.707Z,101459.78
2022-07-29T23:06:51.214Z,101451.47
2022-07-29T23:09:17.873Z,101447.34
2022-07-29T23:11:44.519Z,101438.09
2022-07-29T23:14:10.967Z,101442.59
2022-07-29T23:16:37.504Z,101443.34
2022-07-29T23:19:04.022Z,101435.22
2022-07-29T23:21:30.539Z,101437.44
2022-07-29T23:23:57.016Z,101432.59
2022-07-29T23:26:23.493Z,101437.13
2022-07-29T23:28:50.125Z,101434.50
2022-07-29T23:31:17.342Z,101424.28
2022-07-29T23:33:43.832Z,101429.53
2022-07-29T23:36:10.510Z,101429.03
2022-07-29T23:38:44.335Z,101428.50
2022-07-29T23:41:10.777Z,101434.00
2022-07-29T23:43:37.891Z,101432.50
2022-07-29T23:46:04.705Z,101437.03
2022-07-29T23:48:32.967Z,101436.38
2022-07-29T23:51:01.003Z,101437.56
2022-07-29T23:53:28.646Z,101441.22
2022-07-29T23:55:56.085Z,101441.34
2022-07-29T23:58:23.173Z,101443.13
